Time;durP1;ratioP1;P1;durP2;ratioP2;P2;SDS_P1;SDS_P2;PMS_P1;PMS_P2;Temp;Humidity;BMP_temperature;BMP_pressure;BME280_temperature;BME280_humidity;BME280_pressure;Samples;Min_cycle;Max_cycle;Signal;HPM_P1;HPM_P2
2022/10/31 00:01:48;;;;;;;17.08;8.95;;;;;;;;;;5013281;28;20045;-81
2022/10/31 00:04:14;;;;;;;17.38;8.10;;;;;;;;;;5013369;28;20060;-79
2022/10/31 00:06:41;;;;;;;19.13;8.38;;;;;;;;;;5013989;28;20057;-78
2022/10/31 00:09:09;;;;;;;15.43;7.45;;;;;;;;;;5013515;28;20056;-77
2022/10/31 00:11:35;;;;;;;19.48;7.53;;;;;;;;;;5014112;28;20045;-80
2022/10/31 00:14:02;;;;;;;14.40;7.00;;;;;;;;;;4995930;28;20054;-79
2022/10/31 00:16:29;;;;;;;13.35;6.35;;;;;;;;;;5012572;28;20088;-78
2022/10/31 00:18:58;;;;;;;12.88;6.15;;;;;;;;;;5013842;28;20133;-77
2022/10/31 00:21:25;;;;;;;18.63;6.43;;;;;;;;;;5012487;28;20144;-78
2022/10/31 00:23:52;;;;;;;17.00;6.05;;;;;;;;;;5011838;28;20053;-78
2022/10/31 00:26:18;;;;;;;17.90;5.30;;;;;;;;;;5013447;28;20045;-79
2022/10/31 00:28:45;;;;;;;11.73;5.05;;;;;;;;;;5014891;28;20085;-80
2022/10/31 00:31:12;;;;;;;16.52;6.10;;;;;;;;;;5019732;28;20054;-77
2022/10/31 00:33:39;;;;;;;11.15;5.47;;;;;;;;;;5030715;28;20048;-77
2022/10/31 00:36:07;;;;;;;15.20;6.15;;;;;;;;;;5030070;28;20056;-78
2022/10/31 00:38:33;;;;;;;10.05;4.80;;;;;;;;;;5015319;28;20050;-77
2022/10/31 00:40:59;;;;;;;12.18;4.90;;;;;;;;;;5011764;28;20145;-79
2022/10/31 00:43:26;;;;;;;19.55;5.97;;;;;;;;;;5011073;28;20058;-78
2022/10/31 00:45:52;;;;;;;13.43;5.53;;;;;;;;;;5012123;28;20054;-78
2022/10/31 00:48:19;;;;;;;15.85;6.35;;;;;;;;;;5012268;28;20072;-79
2022/10/31 00:50:45;;;;;;;16.50;6.03;;;;;;;;;;5011996;28;20050;-81
2022/10/31 00:53:11;;;;;;;12.48;5.70;;;;;;;;;;5009844;28;20612;-80
2022/10/31 00:55:38;;;;;;;18.58;5.82;;;;;;;;;;5012111;28;20050;-78
2022/10/31 00:58:04;;;;;;;14.48;5.03;;;;;;;;;;5012325;28;20149;-80
2022/10/31 01:00:31;;;;;;;16.90;4.80;;;;;;;;;;5017195;28;20180;-79
2022/10/31 01:02:57;;;;;;;12.60;4.90;;;;;;;;;;5032297;28;20053;-78
2022/10/31 01:05:24;;;;;;;16.52;5.32;;;;;;;;;;5036254;28;20121;-79
2022/10/31 01:07:50;;;;;;;14.25;5.70;;;;;;;;;;5042001;28;20132;-79
2022/10/31 01:10:17;;;;;;;11.40;5.25;;;;;;;;;;5035742;28;20045;-79
2022/10/31 01:12:45;;;;;;;16.30;5.50;;;;;;;;;;5030194;28;20500;-79
2022/10/31 01:15:13;;;;;;;11.32;4.65;;;;;;;;;;5017020;28;20046;-79
2022/10/31 01:17:39;;;;;;;14.98;5.13;;;;;;;;;;5016926;28;20491;-81
2022/10/31 01:20:13;;;;;;;9.48;4.15;;;;;;;;;;4999447;28;20089;-80
2022/10/31 01:22:40;;;;;;;13.60;4.78;;;;;;;;;;5015479;28;20118;-80
2022/10/31 01:25:07;;;;;;;11.85;4.13;;;;;;;;;;5017905;28;20111;-80
2022/10/31 01:27:34;;;;;;;12.32;4.82;;;;;;;;;;4999205;28;20501;-80
2022/10/31 01:30:01;;;;;;;9.07;4.15;;;;;;;;;;5016428;28;20098;-80
2022/10/31 01:32:28;;;;;;;12.25;4.55;;;;;;;;;;5015184;28;20099;-79
2022/10/31 01:34:55;;;;;;;13.05;4.43;;;;;;;;;;4998836;28;20502;-79
2022/10/31 01:37:21;;;;;;;10.73;4.22;;;;;;;;;;5017133;28;20050;-81
2022/10/31 01:39:48;;;;;;;13.63;4.60;;;;;;;;;;5016503;28;20363;-80
2022/10/31 01:42:19;;;;;;;12.57;4.45;;;;;;;;;;5017022;28;20049;-79
2022/10/31 01:44:56;;;;;;;12.10;4.03;;;;;;;;;;5017444;28;20929;-79
2022/10/31 01:47:35;;;;;;;7.25;3.88;;;;;;;;;;4999447;28;20530;-81
2022/10/31 01:50:03;;;;;;;10.65;4.38;;;;;;;;;;4999328;28;20049;-81
2022/10/31 01:52:35;;;;;;;11.85;4.32;;;;;;;;;;4996979;28;20045;-79
2022/10/31 01:55:04;;;;;;;10.10;4.18;;;;;;;;;;5016265;28;20060;-80
2022/10/31 01:57:31;;;;;;;10.80;4.50;;;;;;;;;;4997539;28;20081;-78
2022/10/31 02:00:00;;;;;;;11.10;4.07;;;;;;;;;;5016351;28;20058;-79
2022/10/31 02:02:28;;;;;;;11.63;4.40;;;;;;;;;;5014044;28;20081;-77
2022/10/31 02:04:55;;;;;;;10.88;3.95;;;;;;;;;;5013623;28;20056;-80
2022/10/31 02:07:26;;;;;;;13.50;4.60;;;;;;;;;;5016325;28;20054;-80
2022/10/31 02:09:53;;;;;;;13.35;4.93;;;;;;;;;;5016539;28;20050;-79
2022/10/31 02:12:20;;;;;;;8.20;4.03;;;;;;;;;;5014690;28;20046;-79
2022/10/31 02:14:46;;;;;;;12.32;4.25;;;;;;;;;;5026681;28;20109;-78
2022/10/31 02:17:13;;;;;;;12.18;4.20;;;;;;;;;;5022473;28;20058;-79
2022/10/31 02:19:51;;;;;;;10.43;3.80;;;;;;;;;;5015672;28;20064;-79
2022/10/31 02:22:26;;;;;;;13.48;4.22;;;;;;;;;;5013515;28;20501;-77
2022/10/31 02:24:56;;;;;;;9.90;3.78;;;;;;;;;;5014326;28;20050;-78
2022/10/31 02:27:39;;;;;;;13.20;3.90;;;;;;;;;;5014796;28;20145;-79
2022/10/31 02:30:17;;;;;;;7.35;3.65;;;;;;;;;;5015078;28;20056;-78
2022/10/31 02:32:52;;;;;;;8.65;3.75;;;;;;;;;;4994915;28;20050;-77
2022/10/31 02:35:29;;;;;;;9.10;4.05;;;;;;;;;;5015010;28;20042;-79
2022/10/31 02:38:13;;;;;;;12.77;4.13;;;;;;;;;;5014177;28;20494;-78
2022/10/31 02:40:44;;;;;;;9.48;3.92;;;;;;;;;;5014403;28;20053;-79
2022/10/31 02:43:27;;;;;;;9.48;3.55;;;;;;;;;;5014442;28;20050;-78
2022/10/31 02:46:10;;;;;;;9.63;3.70;;;;;;;;;;5015525;28;20058;-80
2022/10/31 02:48:38;;;;;;;10.63;3.80;;;;;;;;;;5015791;28;20053;-78
2022/10/31 02:51:05;;;;;;;8.98;3.25;;;;;;;;;;4996964;28;20172;-79
2022/10/31 02:53:35;;;;;;;15.45;3.92;;;;;;;;;;5012982;28;20042;-80
2022/10/31 02:56:05;;;;;;;8.70;3.08;;;;;;;;;;4996538;28;20046;-80
2022/10/31 02:58:34;;;;;;;7.90;3.13;;;;;;;;;;5015593;28;20105;-80
2022/10/31 03:01:04;;;;;;;12.75;3.90;;;;;;;;;;4996668;28;20132;-80
2022/10/31 03:03:43;;;;;;;15.18;3.42;;;;;;;;;;5012750;28;20065;-78
2022/10/31 03:06:16;;;;;;;12.85;3.47;;;;;;;;;;5012793;28;20054;-78
2022/10/31 03:08:50;;;;;;;7.80;3.30;;;;;;;;;;5012617;28;20291;-78
2022/10/31 03:11:19;;;;;;;8.25;3.40;;;;;;;;;;5015028;28;20057;-79
2022/10/31 03:13:45;;;;;;;8.35;3.25;;;;;;;;;;5014957;28;20078;-80
2022/10/31 03:16:38;;;;;;;9.88;3.15;;;;;;;;;;5015646;28;20061;-80
2022/10/31 03:19:09;;;;;;;9.98;3.10;;;;;;;;;;5012265;28;20132;-80
2022/10/31 03:22:07;;;;;;;16.10;3.35;;;;;;;;;;5014958;28;20053;-78
2022/10/31 03:24:37;;;;;;;12.95;3.67;;;;;;;;;;4981647;28;20052;-78
2022/10/31 03:27:06;;;;;;;12.15;3.10;;;;;;;;;;5015088;28;20053;-78
2022/10/31 03:29:34;;;;;;;9.57;3.53;;;;;;;;;;4997551;28;20501;-77
2022/10/31 03:32:03;;;;;;;9.50;3.42;;;;;;;;;;5014321;28;20045;-76
2022/10/31 03:34:30;;;;;;;8.02;3.28;;;;;;;;;;5013304;28;20052;-78
2022/10/31 03:36:58;;;;;;;7.25;3.03;;;;;;;;;;5014253;28;20092;-78
2022/10/31 03:39:26;;;;;;;9.98;3.15;;;;;;;;;;5014552;28;20068;-78
2022/10/31 03:42:11;;;;;;;10.45;3.03;;;;;;;;;;5014054;28;20141;-78
2022/10/31 03:44:43;;;;;;;10.55;3.25;;;;;;;;;;5015380;28;20073;-80
2022/10/31 03:47:09;;;;;;;7.30;3.65;;;;;;;;;;5016277;28;20133;-77
2022/10/31 03:49:36;;;;;;;9.93;2.95;;;;;;;;;;5015536;28;20046;-78
2022/10/31 03:52:09;;;;;;;9.05;3.05;;;;;;;;;;5022114;28;20160;-77
2022/10/31 03:54:48;;;;;;;7.13;3.30;;;;;;;;;;5032153;28;20046;-77
2022/10/31 03:57:33;;;;;;;9.65;3.10;;;;;;;;;;5028949;28;20364;-79
2022/10/31 04:00:03;;;;;;;9.43;3.53;;;;;;;;;;5016494;28;20191;-80
2022/10/31 04:02:32;;;;;;;6.85;3.30;;;;;;;;;;5014245;28;20054;-80
2022/10/31 04:04:59;;;;;;;10.27;3.33;;;;;;;;;;5016191;28;20046;-80
2022/10/31 04:07:28;;;;;;;11.95;3.65;;;;;;;;;;5014796;28;20694;-80
2022/10/31 04:09:56;;;;;;;7.25;3.42;;;;;;;;;;5013691;28;20046;-79
2022/10/31 04:12:23;;;;;;;15.80;3.45;;;;;;;;;;5013111;28;20080;-78
2022/10/31 04:14:50;;;;;;;12.68;3.38;;;;;;;;;;5015189;28;20105;-77
2022/10/31 04:17:18;;;;;;;14.32;3.72;;;;;;;;;;5015089;28;20050;-78
2022/10/31 04:19:44;;;;;;;6.43;3.30;;;;;;;;;;4995975;28;20125;-78
2022/10/31 04:22:11;;;;;;;14.77;3.55;;;;;;;;;;5012864;28;20061;-79
2022/10/31 04:24:38;;;;;;;8.98;3.00;;;;;;;;;;5013339;28;20061;-80
2022/10/31 04:27:05;;;;;;;10.98;3.33;;;;;;;;;;5016160;28;20046;-80
2022/10/31 04:29:31;;;;;;;11.05;3.83;;;;;;;;;;5018463;28;20056;-79
2022/10/31 04:31:58;;;;;;;10.02;3.80;;;;;;;;;;5029518;28;20060;-78
2022/10/31 04:34:24;;;;;;;6.30;3.17;;;;;;;;;;5026808;28;20042;-79
2022/10/31 04:36:51;;;;;;;11.35;3.28;;;;;;;;;;5015845;28;20145;-79
2022/10/31 04:39:17;;;;;;;14.48;3.25;;;;;;;;;;5014363;28;20077;-79
2022/10/31 04:41:51;;;;;;;7.57;3.22;;;;;;;;;;5014903;28;20659;-79
2022/10/31 04:44:18;;;;;;;6.43;3.20;;;;;;;;;;5015058;28;20113;-78
2022/10/31 04:46:44;;;;;;;11.00;3.35;;;;;;;;;;5013032;28;20046;-78
2022/10/31 04:49:11;;;;;;;10.07;3.88;;;;;;;;;;5011335;28;20521;-78
2022/10/31 04:51:37;;;;;;;7.60;3.00;;;;;;;;;;5011005;28;20052;-78
2022/10/31 04:54:04;;;;;;;6.57;3.58;;;;;;;;;;5010922;28;20052;-78
2022/10/31 04:56:30;;;;;;;6.00;2.90;;;;;;;;;;5011392;28;20136;-80
2022/10/31 04:58:56;;;;;;;9.52;3.13;;;;;;;;;;5028595;28;20045;-78
2022/10/31 05:01:23;;;;;;;6.93;3.08;;;;;;;;;;5019855;28;20058;-80
2022/10/31 05:03:49;;;;;;;11.95;3.40;;;;;;;;;;5020484;28;20088;-78
2022/10/31 05:06:16;;;;;;;12.13;3.05;;;;;;;;;;5026325;28;20050;-78
2022/10/31 05:08:42;;;;;;;8.05;3.13;;;;;;;;;;5023498;28;20057;-78
2022/10/31 05:11:09;;;;;;;7.40;3.17;;;;;;;;;;5019347;28;20049;-79
2022/10/31 05:13:35;;;;;;;6.72;2.90;;;;;;;;;;5018061;28;20069;-79
2022/10/31 05:16:03;;;;;;;9.43;3.03;;;;;;;;;;4997692;28;20046;-79
2022/10/31 05:18:29;;;;;;;12.07;2.88;;;;;;;;;;5000683;28;20093;-79
2022/10/31 05:20:55;;;;;;;10.20;3.25;;;;;;;;;;4998318;28;20098;-80
2022/10/31 05:23:22;;;;;;;11.05;3.35;;;;;;;;;;4998316;28;20046;-78
2022/10/31 05:25:48;;;;;;;6.53;3.15;;;;;;;;;;4998871;28;20046;-78
2022/10/31 05:28:14;;;;;;;7.57;3.20;;;;;;;;;;4997948;28;20057;-78
2022/10/31 05:30:41;;;;;;;8.10;3.00;;;;;;;;;;4992844;28;20088;-77
2022/10/31 05:33:07;;;;;;;13.93;3.35;;;;;;;;;;4990464;28;20057;-79
2022/10/31 05:35:34;;;;;;;8.30;3.22;;;;;;;;;;4991676;28;20495;-78
2022/10/31 05:38:00;;;;;;;8.82;3.30;;;;;;;;;;4990852;28;20133;-79
2022/10/31 05:40:27;;;;;;;10.20;3.65;;;;;;;;;;4992975;28;20141;-78
2022/10/31 05:42:54;;;;;;;10.18;3.33;;;;;;;;;;4992415;28;20054;-80
2022/10/31 05:45:21;;;;;;;7.30;3.50;;;;;;;;;;4994598;28;20053;-79
2022/10/31 05:47:54;;;;;;;12.43;3.40;;;;;;;;;;4992923;28;20046;-80
2022/10/31 05:50:20;;;;;;;11.93;3.50;;;;;;;;;;5004519;28;20089;-79
2022/10/31 05:52:47;;;;;;;9.23;3.67;;;;;;;;;;5014849;28;20045;-79
2022/10/31 05:55:13;;;;;;;10.50;3.17;;;;;;;;;;5012242;28;20054;-78
2022/10/31 05:57:40;;;;;;;10.60;3.47;;;;;;;;;;5013139;28;20395;-79
2022/10/31 06:00:06;;;;;;;10.93;2.92;;;;;;;;;;4998836;28;20145;-80
2022/10/31 06:02:34;;;;;;;7.75;3.15;;;;;;;;;;5014208;28;20902;-81
2022/10/31 06:05:01;;;;;;;8.70;3.47;;;;;;;;;;5014623;28;20058;-78
2022/10/31 06:07:31;;;;;;;8.43;4.00;;;;;;;;;;5012395;28;20121;-78
2022/10/31 06:09:57;;;;;;;7.43;3.30;;;;;;;;;;5011646;28;20041;-78
2022/10/31 06:12:24;;;;;;;6.63;3.83;;;;;;;;;;5017320;28;20045;-78
2022/10/31 06:14:50;;;;;;;8.80;3.63;;;;;;;;;;5014465;28;20042;-79
2022/10/31 06:17:17;;;;;;;8.77;3.63;;;;;;;;;;5013982;28;20160;-79
2022/10/31 06:19:43;;;;;;;11.27;3.47;;;;;;;;;;5013463;28;20060;-77
2022/10/31 06:22:13;;;;;;;9.93;3.33;;;;;;;;;;4994393;28;20054;-78
2022/10/31 06:24:39;;;;;;;7.15;3.45;;;;;;;;;;4995099;28;20621;-80
2022/10/31 06:27:06;;;;;;;11.15;3.15;;;;;;;;;;5015140;28;20045;-79
2022/10/31 06:29:32;;;;;;;8.25;3.30;;;;;;;;;;5015574;28;20060;-78
2022/10/31 06:31:58;;;;;;;9.70;3.13;;;;;;;;;;5014193;28;20441;-77
2022/10/31 06:34:25;;;;;;;8.40;3.60;;;;;;;;;;4999468;28;20049;-80
2022/10/31 06:36:51;;;;;;;9.05;3.67;;;;;;;;;;5016375;28;20064;-80
2022/10/31 06:39:17;;;;;;;7.22;3.42;;;;;;;;;;5013489;28;20113;-79
2022/10/31 06:41:47;;;;;;;7.05;2.88;;;;;;;;;;5014537;28;20052;-80
2022/10/31 06:44:13;;;;;;;12.00;3.70;;;;;;;;;;5014711;28;20175;-80
2022/10/31 06:46:39;;;;;;;11.10;3.40;;;;;;;;;;5015023;28;20045;-80
2022/10/31 06:49:06;;;;;;;8.43;3.20;;;;;;;;;;5017352;28;20042;-76
2022/10/31 06:51:32;;;;;;;8.68;3.58;;;;;;;;;;5003977;28;20061;-79
2022/10/31 06:53:59;;;;;;;9.82;3.58;;;;;;;;;;5016764;28;20053;-79
2022/10/31 06:56:25;;;;;;;9.40;3.40;;;;;;;;;;5007868;28;20049;-78
2022/10/31 06:58:52;;;;;;;8.50;3.55;;;;;;;;;;5013747;28;20146;-79
2022/10/31 07:01:18;;;;;;;6.72;3.10;;;;;;;;;;5010784;28;20054;-80
2022/10/31 07:03:45;;;;;;;6.47;2.90;;;;;;;;;;5010069;28;20128;-78
2022/10/31 07:06:11;;;;;;;8.95;3.60;;;;;;;;;;4992485;28;20532;-77
2022/10/31 07:08:38;;;;;;;8.48;3.55;;;;;;;;;;5007684;28;20386;-78
2022/10/31 07:11:04;;;;;;;7.88;3.55;;;;;;;;;;5010113;28;20065;-78
2022/10/31 07:13:31;;;;;;;8.38;3.45;;;;;;;;;;5024609;28;20045;-79
2022/10/31 07:16:01;;;;;;;8.63;3.10;;;;;;;;;;5022203;28;20159;-77
2022/10/31 07:18:28;;;;;;;11.45;3.58;;;;;;;;;;5019224;28;20144;-78
2022/10/31 07:20:54;;;;;;;11.38;3.90;;;;;;;;;;5009874;28;20046;-78
2022/10/31 07:23:21;;;;;;;12.13;4.10;;;;;;;;;;5009848;28;20601;-79
2022/10/31 07:25:47;;;;;;;9.40;3.75;;;;;;;;;;5010156;28;20045;-79
2022/10/31 07:28:14;;;;;;;14.50;4.38;;;;;;;;;;5010842;28;20058;-78
2022/10/31 07:30:40;;;;;;;12.73;4.43;;;;;;;;;;5006945;28;20042;-78
2022/10/31 07:33:08;;;;;;;11.65;4.57;;;;;;;;;;5003143;28;20060;-79
2022/10/31 07:35:35;;;;;;;13.85;4.35;;;;;;;;;;4985834;28;20057;-79
2022/10/31 07:38:11;;;;;;;7.95;4.55;;;;;;;;;;5010364;28;20073;-79
2022/10/31 07:40:38;;;;;;;11.38;4.10;;;;;;;;;;4992251;28;20096;-80
2022/10/31 07:43:04;;;;;;;11.55;4.88;;;;;;;;;;5010268;28;20053;-78
2022/10/31 07:45:39;;;;;;;10.57;4.72;;;;;;;;;;5007875;28;20089;-80
2022/10/31 07:48:05;;;;;;;16.25;4.60;;;;;;;;;;5011332;28;20133;-77
2022/10/31 07:50:35;;;;;;;12.35;5.03;;;;;;;;;;5012055;28;20046;-76
2022/10/31 07:53:03;;;;;;;16.08;4.65;;;;;;;;;;5004000;28;20050;-77
2022/10/31 07:55:30;;;;;;;7.90;4.55;;;;;;;;;;5007381;28;20049;-79
2022/10/31 07:57:58;;;;;;;14.48;5.25;;;;;;;;;;4990963;28;20108;-77
2022/10/31 08:00:25;;;;;;;13.77;5.03;;;;;;;;;;5008103;28;20076;-78
2022/10/31 08:03:00;;;;;;;12.65;5.22;;;;;;;;;;5006856;28;20127;-80
2022/10/31 08:05:28;;;;;;;14.13;4.90;;;;;;;;;;5006687;28;20050;-79
2022/10/31 08:07:54;;;;;;;16.60;4.95;;;;;;;;;;5005669;28;20053;-77
2022/10/31 08:10:21;;;;;;;14.85;5.40;;;;;;;;;;5001188;28;20042;-79
2022/10/31 08:12:54;;;;;;;17.77;4.70;;;;;;;;;;5003074;28;20046;-76
2022/10/31 08:15:20;;;;;;;14.45;4.93;;;;;;;;;;5001722;28;20041;-77
2022/10/31 08:17:47;;;;;;;14.63;5.35;;;;;;;;;;5003812;28;20046;-77
2022/10/31 08:20:13;;;;;;;13.27;5.13;;;;;;;;;;5005672;28;20056;-77
2022/10/31 08:22:40;;;;;;;12.15;4.13;;;;;;;;;;5004353;28;20073;-78
2022/10/31 08:25:09;;;;;;;12.90;3.97;;;;;;;;;;5007235;28;20045;-78
2022/10/31 08:27:35;;;;;;;13.90;3.83;;;;;;;;;;5003663;28;20057;-77
2022/10/31 08:30:01;;;;;;;7.82;3.83;;;;;;;;;;5003126;28;20041;-78
2022/10/31 08:32:28;;;;;;;16.25;4.13;;;;;;;;;;5003289;28;20045;-76
2022/10/31 08:34:54;;;;;;;10.35;3.53;;;;;;;;;;4986499;28;20050;-78
2022/10/31 08:37:21;;;;;;;13.90;4.00;;;;;;;;;;5006435;28;20060;-78
2022/10/31 08:39:47;;;;;;;11.90;4.30;;;;;;;;;;5004809;28;20050;-77
2022/10/31 08:42:14;;;;;;;11.93;4.22;;;;;;;;;;5003740;28;20050;-77
2022/10/31 08:44:40;;;;;;;9.38;3.88;;;;;;;;;;5005983;28;20064;-78
2022/10/31 08:47:06;;;;;;;10.30;3.70;;;;;;;;;;5005105;28;20050;-77
2022/10/31 08:49:33;;;;;;;8.90;4.10;;;;;;;;;;4986984;28;20046;-76
2022/10/31 08:51:59;;;;;;;8.45;4.10;;;;;;;;;;5005563;28;20105;-78
2022/10/31 08:54:26;;;;;;;17.10;5.03;;;;;;;;;;4987574;28;20056;-79
2022/10/31 08:56:55;;;;;;;11.93;4.05;;;;;;;;;;5006555;28;20141;-76
2022/10/31 08:59:22;;;;;;;9.82;3.95;;;;;;;;;;5006582;28;20064;-77
2022/10/31 09:01:48;;;;;;;13.57;3.92;;;;;;;;;;5004581;28;20148;-77
2022/10/31 09:04:15;;;;;;;12.77;3.90;;;;;;;;;;5006427;28;20092;-79
2022/10/31 09:06:41;;;;;;;11.30;3.20;;;;;;;;;;5011172;28;20057;-78
2022/10/31 09:09:26;;;;;;;12.00;3.55;;;;;;;;;;5010874;28;20049;-78
2022/10/31 09:11:53;;;;;;;9.95;3.35;;;;;;;;;;5008611;28;20046;-77
2022/10/31 09:14:19;;;;;;;9.38;3.58;;;;;;;;;;5005218;28;20046;-79
2022/10/31 09:16:45;;;;;;;11.57;3.75;;;;;;;;;;4979933;28;20076;-78
2022/10/31 09:19:12;;;;;;;10.35;3.78;;;;;;;;;;5005415;28;20053;-78
2022/10/31 09:21:38;;;;;;;9.52;4.05;;;;;;;;;;5006823;28;20156;-77
2022/10/31 09:24:05;;;;;;;9.80;4.00;;;;;;;;;;5009770;28;20060;-78
2022/10/31 09:26:32;;;;;;;10.18;3.92;;;;;;;;;;5009028;28;20046;-79
2022/10/31 09:29:01;;;;;;;9.15;3.75;;;;;;;;;;5011647;28;20142;-78
2022/10/31 09:31:28;;;;;;;12.02;4.72;;;;;;;;;;4993377;28;20157;-79
2022/10/31 09:33:54;;;;;;;10.00;4.03;;;;;;;;;;5012172;28;20073;-79
2022/10/31 09:36:21;;;;;;;14.15;5.03;;;;;;;;;;5012271;28;20439;-80
2022/10/31 09:38:47;;;;;;;19.35;4.47;;;;;;;;;;5012974;28;20046;-80
2022/10/31 09:41:16;;;;;;;16.40;4.57;;;;;;;;;;5014014;28;20042;-81
2022/10/31 09:43:42;;;;;;;10.80;4.57;;;;;;;;;;5013647;28;20062;-81
2022/10/31 09:46:28;;;;;;;12.80;4.45;;;;;;;;;;5017045;28;20049;-78
2022/10/31 09:48:57;;;;;;;14.27;4.80;;;;;;;;;;5011408;28;20505;-80
2022/10/31 09:51:28;;;;;;;15.43;4.70;;;;;;;;;;5011067;28;20064;-80
2022/10/31 09:54:01;;;;;;;13.25;4.28;;;;;;;;;;5009085;28;20054;-80
2022/10/31 09:56:27;;;;;;;10.75;4.43;;;;;;;;;;5008472;28;20395;-80
2022/10/31 09:58:59;;;;;;;14.23;4.43;;;;;;;;;;5011449;28;20064;-80
2022/10/31 10:01:25;;;;;;;16.42;4.78;;;;;;;;;;5011029;28;20052;-79
2022/10/31 10:03:55;;;;;;;14.13;4.88;;;;;;;;;;4990417;28;20058;-79
2022/10/31 10:06:27;;;;;;;9.32;4.20;;;;;;;;;;5009352;28;20050;-80
2022/10/31 10:08:54;;;;;;;11.85;4.45;;;;;;;;;;5006409;28;20053;-79
2022/10/31 10:11:27;;;;;;;12.52;4.38;;;;;;;;;;5010546;28;20081;-80
2022/10/31 10:13:59;;;;;;;11.45;4.00;;;;;;;;;;5021224;28;20060;-79
2022/10/31 10:16:38;;;;;;;11.23;4.30;;;;;;;;;;5018995;28;20133;-79
2022/10/31 10:19:24;;;;;;;9.27;4.18;;;;;;;;;;5005458;28;20145;-81
2022/10/31 10:21:53;;;;;;;11.30;4.20;;;;;;;;;;5008068;28;20148;-80
2022/10/31 10:24:29;;;;;;;16.23;4.82;;;;;;;;;;5009531;28;20133;-80
2022/10/31 10:26:55;;;;;;;8.30;4.10;;;;;;;;;;5010889;28;20053;-80
2022/10/31 10:29:22;;;;;;;13.02;4.20;;;;;;;;;;5018137;28;20054;-80
2022/10/31 10:31:49;;;;;;;14.02;4.45;;;;;;;;;;5012819;28;20050;-78
2022/10/31 10:34:31;;;;;;;14.07;4.03;;;;;;;;;;5018470;28;20052;-80
2022/10/31 10:37:01;;;;;;;15.13;3.97;;;;;;;;;;5018691;28;20054;-78
2022/10/31 10:39:57;;;;;;;8.90;3.80;;;;;;;;;;5027860;28;20045;-79
2022/10/31 10:48:14;;;;;;;12.95;3.90;;;;;;;;;;5018275;28;20050;-79
2022/10/31 10:50:48;;;;;;;16.27;4.15;;;;;;;;;;5012750;28;20046;-79
2022/10/31 10:53:35;;;;;;;11.30;4.00;;;;;;;;;;5010416;28;20064;-79
2022/10/31 10:56:17;;;;;;;12.02;4.10;;;;;;;;;;5008351;28;20045;-79
2022/10/31 10:58:44;;;;;;;7.80;3.53;;;;;;;;;;5012357;28;20046;-79
2022/10/31 11:01:13;;;;;;;10.50;4.00;;;;;;;;;;5008602;28;20053;-80
2022/10/31 11:03:44;;;;;;;12.88;4.10;;;;;;;;;;4990115;28;20128;-80
2022/10/31 11:06:21;;;;;;;11.02;4.30;;;;;;;;;;4990487;28;20046;-80
2022/10/31 11:08:48;;;;;;;10.35;4.45;;;;;;;;;;5004413;28;20046;-79
2022/10/31 11:11:25;;;;;;;11.00;4.25;;;;;;;;;;4989665;28;20046;-78
2022/10/31 11:14:05;;;;;;;13.80;4.20;;;;;;;;;;4990146;28;20045;-81
2022/10/31 11:16:35;;;;;;;13.65;4.50;;;;;;;;;;5006674;28;20096;-80
2022/10/31 11:19:14;;;;;;;15.45;4.07;;;;;;;;;;5006691;28;20508;-79
2022/10/31 11:21:41;;;;;;;9.13;4.00;;;;;;;;;;4994958;28;20058;-77
2022/10/31 11:24:10;;;;;;;10.63;4.28;;;;;;;;;;5013719;28;20596;-79
2022/10/31 11:26:37;;;;;;;14.70;4.18;;;;;;;;;;4995502;28;20058;-77
2022/10/31 11:29:05;;;;;;;11.43;3.72;;;;;;;;;;5008262;28;20061;-78
2022/10/31 11:31:32;;;;;;;7.80;3.47;;;;;;;;;;5007682;28;20081;-79
2022/10/31 11:34:00;;;;;;;14.02;4.28;;;;;;;;;;5005851;28;20526;-78
2022/10/31 11:36:29;;;;;;;11.48;4.35;;;;;;;;;;5008007;28;20058;-80
2022/10/31 11:38:55;;;;;;;9.40;3.92;;;;;;;;;;5008136;28;20680;-80
2022/10/31 11:41:29;;;;;;;9.13;3.97;;;;;;;;;;5008461;28;20399;-80
2022/10/31 11:43:57;;;;;;;11.23;4.35;;;;;;;;;;4981626;28;20057;-79
2022/10/31 11:46:33;;;;;;;15.35;4.15;;;;;;;;;;4988511;28;20064;-79
2022/10/31 11:48:59;;;;;;;8.50;3.63;;;;;;;;;;5005513;28;20765;-79
2022/10/31 11:51:27;;;;;;;8.32;3.53;;;;;;;;;;5006826;28;20466;-79
2022/10/31 11:53:55;;;;;;;12.77;3.80;;;;;;;;;;5006136;28;20077;-78
2022/10/31 11:56:36;;;;;;;11.25;3.30;;;;;;;;;;5007307;28;20071;-79
2022/10/31 11:59:04;;;;;;;10.63;3.38;;;;;;;;;;5000300;28;20050;-80
2022/10/31 12:01:31;;;;;;;7.65;3.47;;;;;;;;;;4989825;28;20052;-79
2022/10/31 12:04:00;;;;;;;6.85;2.92;;;;;;;;;;5005284;28;20112;-80
2022/10/31 12:06:30;;;;;;;10.90;3.10;;;;;;;;;;4987633;28;20054;-76
2022/10/31 12:08:56;;;;;;;8.55;3.10;;;;;;;;;;5004234;28;20045;-76
2022/10/31 12:11:28;;;;;;;12.98;3.25;;;;;;;;;;5002950;28;20054;-79
2022/10/31 12:14:18;;;;;;;6.70;3.08;;;;;;;;;;5006810;28;20132;-80
2022/10/31 12:16:44;;;;;;;10.32;3.72;;;;;;;;;;5008743;28;20080;-80
2022/10/31 12:19:14;;;;;;;15.27;3.50;;;;;;;;;;5008590;28;20060;-78
2022/10/31 12:21:51;;;;;;;9.52;3.25;;;;;;;;;;5007658;28;20050;-77
2022/10/31 12:24:36;;;;;;;8.18;3.85;;;;;;;;;;4969557;28;20068;-79
2022/10/31 12:27:12;;;;;;;9.87;3.03;;;;;;;;;;4996208;28;20049;-79
2022/10/31 12:29:54;;;;;;;9.50;3.03;;;;;;;;;;5006374;28;20831;-79
2022/10/31 12:32:38;;;;;;;13.85;3.05;;;;;;;;;;4989132;28;20052;-78
2022/10/31 12:35:07;;;;;;;6.25;2.78;;;;;;;;;;5001129;28;20092;-78
2022/10/31 12:37:41;;;;;;;9.48;2.95;;;;;;;;;;4991500;28;20294;-79
2022/10/31 12:40:20;;;;;;;7.72;3.00;;;;;;;;;;5005829;28;20049;-79
2022/10/31 12:43:01;;;;;;;9.88;2.65;;;;;;;;;;5006178;28;20054;-79
2022/10/31 12:45:40;;;;;;;9.60;3.13;;;;;;;;;;5007623;28;20053;-78
2022/10/31 12:48:07;;;;;;;9.93;3.17;;;;;;;;;;5007520;28;20053;-81
2022/10/31 12:50:42;;;;;;;11.82;3.78;;;;;;;;;;5009181;28;20058;-78
2022/10/31 12:53:15;;;;;;;11.93;3.50;;;;;;;;;;4993784;28;20047;-77
2022/10/31 12:56:00;;;;;;;9.25;3.17;;;;;;;;;;4987475;28;20058;-78
2022/10/31 12:58:31;;;;;;;15.52;3.60;;;;;;;;;;5022371;28;20373;-81
2022/10/31 13:01:16;;;;;;;11.10;2.90;;;;;;;;;;5015510;28;20099;-80
2022/10/31 13:03:46;;;;;;;12.90;3.13;;;;;;;;;;5012391;28;20060;-79
2022/10/31 13:06:19;;;;;;;7.65;2.88;;;;;;;;;;5014286;28;20049;-78
2022/10/31 13:08:51;;;;;;;14.98;3.30;;;;;;;;;;5013898;28;20050;-79
2022/10/31 13:11:21;;;;;;;9.88;3.03;;;;;;;;;;5014505;28;20205;-79
2022/10/31 13:14:17;;;;;;;14.68;3.13;;;;;;;;;;5019145;28;20054;-79
2022/10/31 13:16:46;;;;;;;11.13;2.80;;;;;;;;;;4984532;28;20587;-80
2022/10/31 13:19:18;;;;;;;12.40;3.28;;;;;;;;;;5015770;28;20664;-78
2022/10/31 13:21:45;;;;;;;8.70;2.40;;;;;;;;;;5013113;28;20373;-79
2022/10/31 13:24:16;;;;;;;14.13;2.40;;;;;;;;;;5008507;28;20500;-77
2022/10/31 13:27:11;;;;;;;8.48;2.72;;;;;;;;;;5012697;28;20164;-81
2022/10/31 13:29:42;;;;;;;9.30;3.00;;;;;;;;;;5009491;28;20062;-79
2022/10/31 13:32:10;;;;;;;11.48;3.00;;;;;;;;;;4997498;28;20343;-79
2022/10/31 13:34:44;;;;;;;8.18;3.10;;;;;;;;;;5013064;28;20117;-79
2022/10/31 13:37:29;;;;;;;12.93;3.25;;;;;;;;;;5014368;28;20054;-78
2022/10/31 13:40:05;;;;;;;17.40;3.58;;;;;;;;;;5009424;28;20056;-79
2022/10/31 13:42:50;;;;;;;9.85;3.50;;;;;;;;;;4995646;28;20050;-79
2022/10/31 13:45:18;;;;;;;11.73;3.53;;;;;;;;;;5015952;28;20058;-79
2022/10/31 13:48:05;;;;;;;12.00;3.70;;;;;;;;;;4998381;28;20045;-79
2022/10/31 13:50:32;;;;;;;9.05;3.50;;;;;;;;;;4993952;28;20054;-78
2022/10/31 13:53:11;;;;;;;12.18;4.05;;;;;;;;;;5012573;28;20137;-77
2022/10/31 13:55:41;;;;;;;9.88;4.00;;;;;;;;;;5016339;28;20053;-79
2022/10/31 13:58:37;;;;;;;12.80;3.58;;;;;;;;;;5017302;28;20056;-80
2022/10/31 14:01:09;;;;;;;12.68;4.18;;;;;;;;;;5005445;28;20036;-75
2022/10/31 14:03:37;;;;;;;17.40;4.90;;;;;;;;;;5027995;28;20453;-79
2022/10/31 14:06:34;;;;;;;12.20;3.97;;;;;;;;;;5017838;28;20068;-77
2022/10/31 14:09:00;;;;;;;11.00;3.90;;;;;;;;;;4993156;28;20252;-78
2022/10/31 14:11:27;;;;;;;11.38;4.30;;;;;;;;;;5010289;28;20060;-78
2022/10/31 14:14:01;;;;;;;13.68;4.00;;;;;;;;;;5012398;28;20046;-77
2022/10/31 14:16:31;;;;;;;12.23;4.47;;;;;;;;;;5014489;28;20152;-79
2022/10/31 14:19:05;;;;;;;15.95;4.63;;;;;;;;;;5023923;28;20049;-78
2022/10/31 14:21:38;;;;;;;12.30;4.43;;;;;;;;;;5008583;28;20475;-79
2022/10/31 14:24:22;;;;;;;9.00;3.80;;;;;;;;;;5004077;28;20100;-79
2022/10/31 14:26:59;;;;;;;14.60;4.50;;;;;;;;;;5010257;28;20050;-77
2022/10/31 14:29:26;;;;;;;27.65;5.00;;;;;;;;;;5016600;28;20141;-78
2022/10/31 14:31:56;;;;;;;19.40;4.45;;;;;;;;;;5013130;28;20068;-79
2022/10/31 14:34:23;;;;;;;10.45;4.60;;;;;;;;;;5006206;28;20050;-79
2022/10/31 14:36:52;;;;;;;13.98;4.72;;;;;;;;;;5012331;28;20046;-79
2022/10/31 14:39:28;;;;;;;14.85;5.20;;;;;;;;;;5011281;28;20401;-77
2022/10/31 14:42:04;;;;;;;11.20;4.72;;;;;;;;;;5011148;28;20045;-78
2022/10/31 14:44:37;;;;;;;11.07;4.63;;;;;;;;;;5007655;28;20141;-79
2022/10/31 14:47:09;;;;;;;15.52;4.90;;;;;;;;;;4992102;28;20198;-78
2022/10/31 14:49:55;;;;;;;12.82;5.05;;;;;;;;;;5009872;28;20046;-77
2022/10/31 14:52:21;;;;;;;13.35;5.57;;;;;;;;;;5007731;28;20057;-79
2022/10/31 14:54:51;;;;;;;9.73;4.70;;;;;;;;;;5010125;28;20513;-79
2022/10/31 14:57:26;;;;;;;17.40;5.28;;;;;;;;;;5010375;28;20046;-78
2022/10/31 14:59:55;;;;;;;14.95;5.35;;;;;;;;;;5007060;28;20053;-79